sensor_id;sensor_type;location;lat;lon;timestamp;temperature;humidity
25436;DHT22;13363;52.772;-3.890;2022-09-20T00:01:58;12.70;99.90
25436;DHT22;13363;52.772;-3.890;2022-09-20T00:04:24;12.60;99.90
25436;DHT22;13363;52.772;-3.890;2022-09-20T00:06:50;12.60;99.90
25436;DHT22;13363;52.772;-3.890;2022-09-20T00:09:16;12.60;99.90
25436;DHT22;13363;52.772;-3.890;2022-09-20T00:11:41;12.50;99.90
25436;DHT22;13363;52.772;-3.890;2022-09-20T00:14:08;12.50;99.90
25436;DHT22;13363;52.772;-3.890;2022-09-20T00:16:36;12.40;99.90
25436;DHT22;13363;52.772;-3.890;2022-09-20T00:19:04;12.20;99.90
25436;DHT22;13363;52.772;-3.890;2022-09-20T00:21:32;12.20;99.90
25436;DHT22;13363;52.772;-3.890;2022-09-20T00:23:58;12.10;99.90
25436;DHT22;13363;52.772;-3.890;2022-09-20T00:26:26;12.10;99.90
25436;DHT22;13363;52.772;-3.890;2022-09-20T00:28:52;12.10;99.90
25436;DHT22;13363;52.772;-3.890;2022-09-20T00:31:18;12.10;99.90
25436;DHT22;13363;52.772;-3.890;2022-09-20T00:33:44;12.00;99.90
25436;DHT22;13363;52.772;-3.890;2022-09-20T00:36:29;12.00;99.90
25436;DHT22;13363;52.772;-3.890;2022-09-20T00:38:57;12.00;99.90
25436;DHT22;13363;52.772;-3.890;2022-09-20T00:41:23;11.90;99.90
25436;DHT22;13363;52.772;-3.890;2022-09-20T00:43:49;11.90;99.90
25436;DHT22;13363;52.772;-3.890;2022-09-20T00:46:37;11.90;99.90
25436;DHT22;13363;52.772;-3.890;2022-09-20T00:49:15;11.90;99.90
25436;DHT22;13363;52.772;-3.890;2022-09-20T00:51:45;11.90;99.90
25436;DHT22;13363;52.772;-3.890;2022-09-20T00:54:13;11.90;99.90
25436;DHT22;13363;52.772;-3.890;2022-09-20T00:56:41;11.90;99.90
25436;DHT22;13363;52.772;-3.890;2022-09-20T01:01:43;11.80;99.90
25436;DHT22;13363;52.772;-3.890;2022-09-20T01:04:11;11.70;99.90
25436;DHT22;13363;52.772;-3.890;2022-09-20T01:06:39;11.70;99.90
25436;DHT22;13363;52.772;-3.890;2022-09-20T01:09:05;11.60;99.90
25436;DHT22;13363;52.772;-3.890;2022-09-20T01:11:33;11.60;99.90
25436;DHT22;13363;52.772;-3.890;2022-09-20T01:14:00;11.50;99.90
25436;DHT22;13363;52.772;-3.890;2022-09-20T01:16:27;11.50;99.90
25436;DHT22;13363;52.772;-3.890;2022-09-20T01:18:56;11.50;99.90
25436;DHT22;13363;52.772;-3.890;2022-09-20T01:21:24;11.40;99.90
25436;DHT22;13363;52.772;-3.890;2022-09-20T01:24:11;11.40;99.90
25436;DHT22;13363;52.772;-3.890;2022-09-20T01:32:10;11.20;99.90
25436;DHT22;13363;52.772;-3.890;2022-09-20T01:34:43;11.10;99.90
25436;DHT22;13363;52.772;-3.890;2022-09-20T01:37:35;11.10;99.90
25436;DHT22;13363;52.772;-3.890;2022-09-20T01:42:41;11.00;99.90
25436;DHT22;13363;52.772;-3.890;2022-09-20T01:45:28;11.00;99.90
25436;DHT22;13363;52.772;-3.890;2022-09-20T01:48:22;10.90;99.90
25436;DHT22;13363;52.772;-3.890;2022-09-20T01:51:10;10.80;99.90
25436;DHT22;13363;52.772;-3.890;2022-09-20T02:19:29;10.60;99.90
25436;DHT22;13363;52.772;-3.890;2022-09-20T02:22:25;10.60;99.90
25436;DHT22;13363;52.772;-3.890;2022-09-20T02:25:00;10.50;99.90
25436;DHT22;13363;52.772;-3.890;2022-09-20T02:38:56;10.40;99.90
25436;DHT22;13363;52.772;-3.890;2022-09-20T02:41:40;10.40;99.90
25436;DHT22;13363;52.772;-3.890;2022-09-20T02:53:16;10.50;99.90
25436;DHT22;13363;52.772;-3.890;2022-09-20T02:55:48;10.60;99.90
25436;DHT22;13363;52.772;-3.890;2022-09-20T03:04:12;10.50;99.90
25436;DHT22;13363;52.772;-3.890;2022-09-20T03:16:10;10.20;99.90
25436;DHT22;13363;52.772;-3.890;2022-09-20T03:18:20;10.20;99.90
25436;DHT22;13363;52.772;-3.890;2022-09-20T03:24:00;10.10;99.90
25436;DHT22;13363;52.772;-3.890;2022-09-20T03:26:50;10.00;99.90
25436;DHT22;13363;52.772;-3.890;2022-09-20T03:35:29;10.00;99.90
25436;DHT22;13363;52.772;-3.890;2022-09-20T03:44:07;10.30;99.90
25436;DHT22;13363;52.772;-3.890;2022-09-20T03:46:45;10.30;99.90
25436;DHT22;13363;52.772;-3.890;2022-09-20T04:01:11;10.30;99.90
25436;DHT22;13363;52.772;-3.890;2022-09-20T04:20:29;10.40;99.90
25436;DHT22;13363;52.772;-3.890;2022-09-20T04:23:00;10.50;99.90
25436;DHT22;13363;52.772;-3.890;2022-09-20T04:25:37;10.50;99.90
25436;DHT22;13363;52.772;-3.890;2022-09-20T04:28:33;10.50;99.90
25436;DHT22;13363;52.772;-3.890;2022-09-20T04:31:08;10.50;99.90
25436;DHT22;13363;52.772;-3.890;2022-09-20T04:33:41;10.60;99.90
25436;DHT22;13363;52.772;-3.890;2022-09-20T04:59:06;10.50;99.90
25436;DHT22;13363;52.772;-3.890;2022-09-20T05:07:21;10.50;99.90
25436;DHT22;13363;52.772;-3.890;2022-09-20T05:12:38;10.50;99.90
25436;DHT22;13363;52.772;-3.890;2022-09-20T05:15:34;10.50;99.90
25436;DHT22;13363;52.772;-3.890;2022-09-20T05:18:29;10.50;99.90
25436;DHT22;13363;52.772;-3.890;2022-09-20T05:21:16;10.40;99.90
25436;DHT22;13363;52.772;-3.890;2022-09-20T05:24:00;10.50;99.90
25436;DHT22;13363;52.772;-3.890;2022-09-20T05:32:21;10.40;99.90
25436;DHT22;13363;52.772;-3.890;2022-09-20T05:35:01;10.40;99.90
25436;DHT22;13363;52.772;-3.890;2022-09-20T05:40:31;10.40;99.90
25436;DHT22;13363;52.772;-3.890;2022-09-20T05:48:39;10.40;99.90
25436;DHT22;13363;52.772;-3.890;2022-09-20T05:51:17;10.30;99.90
25436;DHT22;13363;52.772;-3.890;2022-09-20T05:56:54;10.40;99.90
25436;DHT22;13363;52.772;-3.890;2022-09-20T05:59:39;10.40;99.90
25436;DHT22;13363;52.772;-3.890;2022-09-20T06:05:28;10.40;99.90
25436;DHT22;13363;52.772;-3.890;2022-09-20T06:13:47;10.40;99.90
25436;DHT22;13363;52.772;-3.890;2022-09-20T06:19:24;10.50;99.90
25436;DHT22;13363;52.772;-3.890;2022-09-20T06:21:54;10.50;99.90
25436;DHT22;13363;52.772;-3.890;2022-09-20T06:24:36;10.50;99.90
25436;DHT22;13363;52.772;-3.890;2022-09-20T06:27:11;10.60;99.90
25436;DHT22;13363;52.772;-3.890;2022-09-20T06:29:42;10.50;99.90
25436;DHT22;13363;52.772;-3.890;2022-09-20T06:32:08;10.50;99.90
25436;DHT22;13363;52.772;-3.890;2022-09-20T06:34:35;10.50;99.90
25436;DHT22;13363;52.772;-3.890;2022-09-20T06:37:10;10.60;99.90
25436;DHT22;13363;52.772;-3.890;2022-09-20T06:43:12;10.60;99.90
25436;DHT22;13363;52.772;-3.890;2022-09-20T06:45:40;10.70;99.90
25436;DHT22;13363;52.772;-3.890;2022-09-20T06:48:06;10.80;99.90
25436;DHT22;13363;52.772;-3.890;2022-09-20T06:50:40;10.80;99.90
25436;DHT22;13363;52.772;-3.890;2022-09-20T06:53:13;10.80;99.90
25436;DHT22;13363;52.772;-3.890;2022-09-20T06:55:41;10.90;99.90
25436;DHT22;13363;52.772;-3.890;2022-09-20T06:58:09;10.80;99.90
25436;DHT22;13363;52.772;-3.890;2022-09-20T07:00:36;10.80;99.90
25436;DHT22;13363;52.772;-3.890;2022-09-20T07:03:04;10.90;99.90
25436;DHT22;13363;52.772;-3.890;2022-09-20T07:05:30;10.80;99.90
25436;DHT22;13363;52.772;-3.890;2022-09-20T07:07:57;10.80;99.90
25436;DHT22;13363;52.772;-3.890;2022-09-20T07:10:25;10.80;99.90
25436;DHT22;13363;52.772;-3.890;2022-09-20T07:12:55;10.80;99.90
25436;DHT22;13363;52.772;-3.890;2022-09-20T07:15:21;10.80;99.90
25436;DHT22;13363;52.772;-3.890;2022-09-20T07:17:48;10.90;99.90
25436;DHT22;13363;52.772;-3.890;2022-09-20T07:20:16;10.90;99.90
25436;DHT22;13363;52.772;-3.890;2022-09-20T07:22:42;11.00;99.90
25436;DHT22;13363;52.772;-3.890;2022-09-20T07:25:08;11.00;99.90
25436;DHT22;13363;52.772;-3.890;2022-09-20T07:27:34;11.00;99.90
25436;DHT22;13363;52.772;-3.890;2022-09-20T07:30:00;11.10;99.90
25436;DHT22;13363;52.772;-3.890;2022-09-20T07:32:26;11.20;99.90
25436;DHT22;13363;52.772;-3.890;2022-09-20T07:34:52;11.40;99.90
25436;DHT22;13363;52.772;-3.890;2022-09-20T07:37:18;11.40;99.90
25436;DHT22;13363;52.772;-3.890;2022-09-20T07:39:44;11.60;99.90
25436;DHT22;13363;52.772;-3.890;2022-09-20T07:42:12;11.70;99.90
25436;DHT22;13363;52.772;-3.890;2022-09-20T07:44:37;11.80;99.90
25436;DHT22;13363;52.772;-3.890;2022-09-20T07:47:06;11.90;99.90
25436;DHT22;13363;52.772;-3.890;2022-09-20T07:49:33;12.10;99.90
25436;DHT22;13363;52.772;-3.890;2022-09-20T07:51:59;13.10;99.90
25436;DHT22;13363;52.772;-3.890;2022-09-20T07:54:25;14.30;99.90
25436;DHT22;13363;52.772;-3.890;2022-09-20T07:56:54;15.30;99.90
25436;DHT22;13363;52.772;-3.890;2022-09-20T07:59:20;15.90;99.90
25436;DHT22;13363;52.772;-3.890;2022-09-20T08:01:46;15.60;99.90
25436;DHT22;13363;52.772;-3.890;2022-09-20T08:04:12;15.10;99.90
25436;DHT22;13363;52.772;-3.890;2022-09-20T08:06:41;14.60;99.90
25436;DHT22;13363;52.772;-3.890;2022-09-20T08:09:08;14.40;99.90
25436;DHT22;13363;52.772;-3.890;2022-09-20T08:11:35;14.10;99.90
25436;DHT22;13363;52.772;-3.890;2022-09-20T08:14:04;13.80;99.90
25436;DHT22;13363;52.772;-3.890;2022-09-20T08:16:31;13.70;99.90
25436;DHT22;13363;52.772;-3.890;2022-09-20T08:18:59;13.60;99.90
25436;DHT22;13363;52.772;-3.890;2022-09-20T08:21:29;13.80;99.90
25436;DHT22;13363;52.772;-3.890;2022-09-20T08:23:56;13.90;99.90
25436;DHT22;13363;52.772;-3.890;2022-09-20T08:26:23;13.90;99.90
25436;DHT22;13363;52.772;-3.890;2022-09-20T08:28:54;13.70;99.90
25436;DHT22;13363;52.772;-3.890;2022-09-20T08:31:26;13.70;99.90
25436;DHT22;13363;52.772;-3.890;2022-09-20T08:33:53;13.70;99.90
25436;DHT22;13363;52.772;-3.890;2022-09-20T08:36:24;13.70;99.90
25436;DHT22;13363;52.772;-3.890;2022-09-20T08:38:51;13.80;99.90
25436;DHT22;13363;52.772;-3.890;2022-09-20T08:46:46;14.40;99.90
25436;DHT22;13363;52.772;-3.890;2022-09-20T08:49:22;14.60;99.90
25436;DHT22;13363;52.772;-3.890;2022-09-20T08:51:50;15.40;99.90
25436;DHT22;13363;52.772;-3.890;2022-09-20T08:54:16;16.30;99.90
25436;DHT22;13363;52.772;-3.890;2022-09-20T08:56:42;17.40;99.90
25436;DHT22;13363;52.772;-3.890;2022-09-20T08:59:18;18.90;99.90
25436;DHT22;13363;52.772;-3.890;2022-09-20T09:01:46;19.50;99.90
25436;DHT22;13363;52.772;-3.890;2022-09-20T09:04:18;19.70;99.90
25436;DHT22;13363;52.772;-3.890;2022-09-20T09:06:46;19.50;99.90
25436;DHT22;13363;52.772;-3.890;2022-09-20T09:09:26;19.10;99.90
25436;DHT22;13363;52.772;-3.890;2022-09-20T09:11:54;18.80;99.90
25436;DHT22;13363;52.772;-3.890;2022-09-20T09:17:10;18.10;99.90
25436;DHT22;13363;52.772;-3.890;2022-09-20T09:19:47;17.90;99.90
25436;DHT22;13363;52.772;-3.890;2022-09-20T09:28:11;17.10;99.90
25436;DHT22;13363;52.772;-3.890;2022-09-20T09:30:45;17.20;99.90
25436;DHT22;13363;52.772;-3.890;2022-09-20T09:33:30;17.20;99.90
25436;DHT22;13363;52.772;-3.890;2022-09-20T09:36:16;17.30;99.90
25436;DHT22;13363;52.772;-3.890;2022-09-20T09:38:45;17.30;99.90
25436;DHT22;13363;52.772;-3.890;2022-09-20T09:41:20;17.30;99.90
25436;DHT22;13363;52.772;-3.890;2022-09-20T09:44:03;17.40;99.90
25436;DHT22;13363;52.772;-3.890;2022-09-20T09:46:33;17.30;99.90
25436;DHT22;13363;52.772;-3.890;2022-09-20T09:51:40;17.50;99.90
25436;DHT22;13363;52.772;-3.890;2022-09-20T09:54:15;17.40;99.90
25436;DHT22;13363;52.772;-3.890;2022-09-20T09:57:37;17.50;99.90
25436;DHT22;13363;52.772;-3.890;2022-09-20T10:03:03;17.40;99.90
25436;DHT22;13363;52.772;-3.890;2022-09-20T10:11:26;17.90;99.90
25436;DHT22;13363;52.772;-3.890;2022-09-20T10:14:17;18.20;99.90
25436;DHT22;13363;52.772;-3.890;2022-09-20T10:17:06;18.20;99.90
25436;DHT22;13363;52.772;-3.890;2022-09-20T10:22:27;18.40;99.90
25436;DHT22;13363;52.772;-3.890;2022-09-20T10:25:15;18.50;99.90
25436;DHT22;13363;52.772;-3.890;2022-09-20T10:30:17;18.70;99.90
25436;DHT22;13363;52.772;-3.890;2022-09-20T10:32:53;18.80;99.90
25436;DHT22;13363;52.772;-3.890;2022-09-20T10:38:14;18.90;99.90
25436;DHT22;13363;52.772;-3.890;2022-09-20T10:47:13;19.30;99.90
25436;DHT22;13363;52.772;-3.890;2022-09-20T10:52:26;20.30;99.90
25436;DHT22;13363;52.772;-3.890;2022-09-20T10:58:06;20.10;99.90
25436;DHT22;13363;52.772;-3.890;2022-09-20T11:04:42;19.20;99.90
25436;DHT22;13363;52.772;-3.890;2022-09-20T11:09:16;18.50;99.90
25436;DHT22;13363;52.772;-3.890;2022-09-20T11:11:46;18.30;99.90
25436;DHT22;13363;52.772;-3.890;2022-09-20T11:14:32;18.40;99.90
25436;DHT22;13363;52.772;-3.890;2022-09-20T11:17:14;18.50;99.90
25436;DHT22;13363;52.772;-3.890;2022-09-20T11:20:04;18.80;99.90
25436;DHT22;13363;52.772;-3.890;2022-09-20T11:23:36;18.80;99.90
25436;DHT22;13363;52.772;-3.890;2022-09-20T11:25:59;18.60;99.90
25436;DHT22;13363;52.772;-3.890;2022-09-20T11:33:49;18.90;99.90
25436;DHT22;13363;52.772;-3.890;2022-09-20T11:39:16;18.80;99.90
25436;DHT22;13363;52.772;-3.890;2022-09-20T11:41:44;18.70;99.90
25436;DHT22;13363;52.772;-3.890;2022-09-20T11:44:14;18.50;99.90
25436;DHT22;13363;52.772;-3.890;2022-09-20T11:49:41;18.40;99.90
25436;DHT22;13363;52.772;-3.890;2022-09-20T11:52:24;18.50;99.90
25436;DHT22;13363;52.772;-3.890;2022-09-20T11:55:13;18.60;99.90
25436;DHT22;13363;52.772;-3.890;2022-09-20T11:57:43;18.50;99.90
25436;DHT22;13363;52.772;-3.890;2022-09-20T12:00:11;18.50;99.90
25436;DHT22;13363;52.772;-3.890;2022-09-20T12:02:49;18.40;99.90
25436;DHT22;13363;52.772;-3.890;2022-09-20T12:05:33;18.40;99.90
25436;DHT22;13363;52.772;-3.890;2022-09-20T12:08:06;18.30;99.90
25436;DHT22;13363;52.772;-3.890;2022-09-20T12:10:41;18.30;99.90
25436;DHT22;13363;52.772;-3.890;2022-09-20T12:13:22;18.40;99.90
25436;DHT22;13363;52.772;-3.890;2022-09-20T12:16:05;18.30;99.90
25436;DHT22;13363;52.772;-3.890;2022-09-20T12:21:17;18.50;99.90
25436;DHT22;13363;52.772;-3.890;2022-09-20T12:28:54;18.70;99.90
25436;DHT22;13363;52.772;-3.890;2022-09-20T12:36:39;18.70;99.90
25436;DHT22;13363;52.772;-3.890;2022-09-20T12:42:00;18.60;99.90
25436;DHT22;13363;52.772;-3.890;2022-09-20T12:47:23;18.20;99.90
25436;DHT22;13363;52.772;-3.890;2022-09-20T12:50:13;18.30;99.90
25436;DHT22;13363;52.772;-3.890;2022-09-20T12:52:59;18.20;99.90
25436;DHT22;13363;52.772;-3.890;2022-09-20T12:55:53;18.20;99.90
25436;DHT22;13363;52.772;-3.890;2022-09-20T12:58:36;18.20;99.90
25436;DHT22;13363;52.772;-3.890;2022-09-20T13:03:40;18.40;99.90
25436;DHT22;13363;52.772;-3.890;2022-09-20T13:06:32;18.30;99.90
25436;DHT22;13363;52.772;-3.890;2022-09-20T13:09:03;18.10;99.90
25436;DHT22;13363;52.772;-3.890;2022-09-20T13:11:54;18.20;99.90
25436;DHT22;13363;52.772;-3.890;2022-09-20T13:14:27;18.20;99.90
25436;DHT22;13363;52.772;-3.890;2022-09-20T13:17:21;18.10;99.90
25436;DHT22;13363;52.772;-3.890;2022-09-20T13:19:52;18.10;99.90
25436;DHT22;13363;52.772;-3.890;2022-09-20T13:22:56;18.20;99.90
25436;DHT22;13363;52.772;-3.890;2022-09-20T13:25:17;18.20;99.90
25436;DHT22;13363;52.772;-3.890;2022-09-20T13:30:32;18.50;99.90
25436;DHT22;13363;52.772;-3.890;2022-09-20T13:33:23;18.70;99.90
25436;DHT22;13363;52.772;-3.890;2022-09-20T13:35:54;19.10;99.90
25436;DHT22;13363;52.772;-3.890;2022-09-20T13:38:26;19.20;99.90
25436;DHT22;13363;52.772;-3.890;2022-09-20T13:41:08;18.70;99.90
25436;DHT22;13363;52.772;-3.890;2022-09-20T13:43:45;18.70;99.90
25436;DHT22;13363;52.772;-3.890;2022-09-20T13:46:27;19.10;99.90
25436;DHT22;13363;52.772;-3.890;2022-09-20T13:51:34;19.20;99.90
25436;DHT22;13363;52.772;-3.890;2022-09-20T13:54:20;19.40;99.90
25436;DHT22;13363;52.772;-3.890;2022-09-20T13:56:49;19.60;99.90
25436;DHT22;13363;52.772;-3.890;2022-09-20T13:59:16;19.40;99.90
25436;DHT22;13363;52.772;-3.890;2022-09-20T14:01:48;19.40;99.90
25436;DHT22;13363;52.772;-3.890;2022-09-20T14:04:17;19.50;99.90
25436;DHT22;13363;52.772;-3.890;2022-09-20T14:06:46;19.30;99.90
25436;DHT22;13363;52.772;-3.890;2022-09-20T14:09:26;19.10;99.90
25436;DHT22;13363;52.772;-3.890;2022-09-20T14:11:53;19.10;99.90
25436;DHT22;13363;52.772;-3.890;2022-09-20T14:14:22;18.80;99.90
25436;DHT22;13363;52.772;-3.890;2022-09-20T14:16:49;18.60;99.90
25436;DHT22;13363;52.772;-3.890;2022-09-20T14:19:18;18.70;99.90
25436;DHT22;13363;52.772;-3.890;2022-09-20T14:21:46;18.60;99.90
25436;DHT22;13363;52.772;-3.890;2022-09-20T14:24:24;18.50;99.90
25436;DHT22;13363;52.772;-3.890;2022-09-20T14:29:42;18.50;99.90
25436;DHT22;13363;52.772;-3.890;2022-09-20T14:34:40;18.80;99.90
25436;DHT22;13363;52.772;-3.890;2022-09-20T14:40:43;19.10;99.90
25436;DHT22;13363;52.772;-3.890;2022-09-20T14:46:16;18.90;99.90
25436;DHT22;13363;52.772;-3.890;2022-09-20T14:48:42;19.00;99.90
25436;DHT22;13363;52.772;-3.890;2022-09-20T14:53:45;19.30;99.90
25436;DHT22;13363;52.772;-3.890;2022-09-20T14:56:14;19.50;99.90
25436;DHT22;13363;52.772;-3.890;2022-09-20T14:59:00;19.50;99.90
25436;DHT22;13363;52.772;-3.890;2022-09-20T15:01:25;19.50;99.90
25436;DHT22;13363;52.772;-3.890;2022-09-20T15:03:52;19.40;99.90
25436;DHT22;13363;52.772;-3.890;2022-09-20T15:06:18;19.30;99.90
25436;DHT22;13363;52.772;-3.890;2022-09-20T15:08:44;19.30;99.90
25436;DHT22;13363;52.772;-3.890;2022-09-20T15:11:16;19.30;99.90
25436;DHT22;13363;52.772;-3.890;2022-09-20T15:13:42;19.30;99.90
25436;DHT22;13363;52.772;-3.890;2022-09-20T15:16:10;19.40;99.90
25436;DHT22;13363;52.772;-3.890;2022-09-20T15:18:40;19.60;99.90
25436;DHT22;13363;52.772;-3.890;2022-09-20T15:21:06;19.60;99.90
25436;DHT22;13363;52.772;-3.890;2022-09-20T15:23:32;19.20;99.90
25436;DHT22;13363;52.772;-3.890;2022-09-20T15:25:58;19.00;99.90
25436;DHT22;13363;52.772;-3.890;2022-09-20T15:28:27;18.70;99.90
25436;DHT22;13363;52.772;-3.890;2022-09-20T15:30:53;18.70;99.90
25436;DHT22;13363;52.772;-3.890;2022-09-20T15:33:20;18.70;99.90
25436;DHT22;13363;52.772;-3.890;2022-09-20T15:35:47;18.80;99.90
25436;DHT22;13363;52.772;-3.890;2022-09-20T15:38:15;18.80;99.90
25436;DHT22;13363;52.772;-3.890;2022-09-20T15:40:44;18.90;99.90
25436;DHT22;13363;52.772;-3.890;2022-09-20T15:43:13;18.90;99.90
25436;DHT22;13363;52.772;-3.890;2022-09-20T15:45:55;18.70;99.90
25436;DHT22;13363;52.772;-3.890;2022-09-20T15:48:26;18.70;99.90
25436;DHT22;13363;52.772;-3.890;2022-09-20T15:51:06;18.60;99.90
25436;DHT22;13363;52.772;-3.890;2022-09-20T15:53:37;18.50;99.90
25436;DHT22;13363;52.772;-3.890;2022-09-20T15:56:13;18.50;99.90
25436;DHT22;13363;52.772;-3.890;2022-09-20T15:58:43;18.50;99.90
25436;DHT22;13363;52.772;-3.890;2022-09-20T16:01:13;18.50;99.90
25436;DHT22;13363;52.772;-3.890;2022-09-20T16:03:43;18.50;99.90
25436;DHT22;13363;52.772;-3.890;2022-09-20T16:06:10;18.50;99.90
25436;DHT22;13363;52.772;-3.890;2022-09-20T16:08:38;18.40;99.90
25436;DHT22;13363;52.772;-3.890;2022-09-20T16:11:07;18.30;99.90
25436;DHT22;13363;52.772;-3.890;2022-09-20T16:13:34;18.10;99.90
25436;DHT22;13363;52.772;-3.890;2022-09-20T16:16:04;18.00;99.90
25436;DHT22;13363;52.772;-3.890;2022-09-20T16:18:31;17.80;99.90
25436;DHT22;13363;52.772;-3.890;2022-09-20T16:21:17;17.60;99.90
25436;DHT22;13363;52.772;-3.890;2022-09-20T16:23:49;17.50;99.90
25436;DHT22;13363;52.772;-3.890;2022-09-20T16:26:15;17.40;99.90
25436;DHT22;13363;52.772;-3.890;2022-09-20T16:28:42;17.30;99.90
25436;DHT22;13363;52.772;-3.890;2022-09-20T16:33:53;17.20;99.90
25436;DHT22;13363;52.772;-3.890;2022-09-20T16:36:18;17.10;99.90
25436;DHT22;13363;52.772;-3.890;2022-09-20T16:38:45;17.10;99.90
25436;DHT22;13363;52.772;-3.890;2022-09-20T16:41:11;17.00;99.90
25436;DHT22;13363;52.772;-3.890;2022-09-20T16:43:37;16.90;99.90
25436;DHT22;13363;52.772;-3.890;2022-09-20T16:46:05;16.80;99.90
25436;DHT22;13363;52.772;-3.890;2022-09-20T16:48:32;16.70;99.90
25436;DHT22;13363;52.772;-3.890;2022-09-20T16:50:58;16.70;99.90
25436;DHT22;13363;52.772;-3.890;2022-09-20T16:53:25;16.70;99.90
25436;DHT22;13363;52.772;-3.890;2022-09-20T16:55:51;16.70;99.90
25436;DHT22;13363;52.772;-3.890;2022-09-20T16:58:26;16.60;99.90
25436;DHT22;13363;52.772;-3.890;2022-09-20T17:00:53;16.60;99.90
25436;DHT22;13363;52.772;-3.890;2022-09-20T17:03:22;16.60;99.90
25436;DHT22;13363;52.772;-3.890;2022-09-20T17:05:51;16.50;99.90
25436;DHT22;13363;52.772;-3.890;2022-09-20T17:08:17;16.50;99.90
25436;DHT22;13363;52.772;-3.890;2022-09-20T17:10:43;16.40;99.90
25436;DHT22;13363;52.772;-3.890;2022-09-20T17:13:09;16.40;99.90
25436;DHT22;13363;52.772;-3.890;2022-09-20T17:15:36;16.40;99.90
25436;DHT22;13363;52.772;-3.890;2022-09-20T17:18:02;16.40;99.90
25436;DHT22;13363;52.772;-3.890;2022-09-20T17:20:29;16.30;99.90
25436;DHT22;13363;52.772;-3.890;2022-09-20T17:22:55;16.30;99.90
25436;DHT22;13363;52.772;-3.890;2022-09-20T17:25:22;16.30;99.90
25436;DHT22;13363;52.772;-3.890;2022-09-20T17:27:51;16.20;99.90
25436;DHT22;13363;52.772;-3.890;2022-09-20T17:30:17;16.20;99.90
25436;DHT22;13363;52.772;-3.890;2022-09-20T17:32:43;16.10;99.90
25436;DHT22;13363;52.772;-3.890;2022-09-20T17:35:15;16.10;99.90
25436;DHT22;13363;52.772;-3.890;2022-09-20T17:37:41;16.00;99.90
25436;DHT22;13363;52.772;-3.890;2022-09-20T17:40:07;16.00;99.90
25436;DHT22;13363;52.772;-3.890;2022-09-20T17:42:33;15.90;99.90
25436;DHT22;13363;52.772;-3.890;2022-09-20T17:45:00;15.80;99.90
25436;DHT22;13363;52.772;-3.890;2022-09-20T17:47:25;15.80;99.90
25436;DHT22;13363;52.772;-3.890;2022-09-20T17:49:51;15.70;99.90
25436;DHT22;13363;52.772;-3.890;2022-09-20T17:52:19;15.60;99.90
25436;DHT22;13363;52.772;-3.890;2022-09-20T17:55:09;15.50;99.90
25436;DHT22;13363;52.772;-3.890;2022-09-20T17:57:35;15.40;99.90
25436;DHT22;13363;52.772;-3.890;2022-09-20T18:00:02;15.30;99.90
25436;DHT22;13363;52.772;-3.890;2022-09-20T18:02:29;15.20;99.90
25436;DHT22;13363;52.772;-3.890;2022-09-20T18:04:55;15.20;99.90
25436;DHT22;13363;52.772;-3.890;2022-09-20T18:07:21;15.10;99.90
25436;DHT22;13363;52.772;-3.890;2022-09-20T18:09:47;15.10;99.90
25436;DHT22;13363;52.772;-3.890;2022-09-20T18:12:13;15.00;99.90
25436;DHT22;13363;52.772;-3.890;2022-09-20T18:14:38;14.90;99.90
25436;DHT22;13363;52.772;-3.890;2022-09-20T18:17:04;14.90;99.90
25436;DHT22;13363;52.772;-3.890;2022-09-20T18:19:31;14.80;99.90
25436;DHT22;13363;52.772;-3.890;2022-09-20T18:21:59;14.70;99.90
25436;DHT22;13363;52.772;-3.890;2022-09-20T18:24:25;14.60;99.90
25436;DHT22;13363;52.772;-3.890;2022-09-20T18:26:51;14.50;99.90
25436;DHT22;13363;52.772;-3.890;2022-09-20T18:29:17;14.50;99.90
25436;DHT22;13363;52.772;-3.890;2022-09-20T18:31:48;14.40;99.90
25436;DHT22;13363;52.772;-3.890;2022-09-20T18:34:20;14.30;99.90
25436;DHT22;13363;52.772;-3.890;2022-09-20T18:36:51;14.20;99.90
25436;DHT22;13363;52.772;-3.890;2022-09-20T18:39:25;14.20;99.90
25436;DHT22;13363;52.772;-3.890;2022-09-20T18:41:51;14.10;99.90
25436;DHT22;13363;52.772;-3.890;2022-09-20T18:44:18;14.00;99.90
25436;DHT22;13363;52.772;-3.890;2022-09-20T18:46:45;14.00;99.90
25436;DHT22;13363;52.772;-3.890;2022-09-20T18:49:12;13.90;99.90
25436;DHT22;13363;52.772;-3.890;2022-09-20T18:51:40;13.80;99.90
25436;DHT22;13363;52.772;-3.890;2022-09-20T18:54:07;13.70;99.90
25436;DHT22;13363;52.772;-3.890;2022-09-20T18:56:38;13.60;99.90
25436;DHT22;13363;52.772;-3.890;2022-09-20T18:59:11;13.50;99.90
25436;DHT22;13363;52.772;-3.890;2022-09-20T19:04:57;13.30;99.90
25436;DHT22;13363;52.772;-3.890;2022-09-20T19:13:04;13.00;99.90
25436;DHT22;13363;52.772;-3.890;2022-09-20T19:18:37;12.90;99.90
25436;DHT22;13363;52.772;-3.890;2022-09-20T19:21:41;12.90;99.90
25436;DHT22;13363;52.772;-3.890;2022-09-20T19:26:46;12.80;99.90
25436;DHT22;13363;52.772;-3.890;2022-09-20T19:29:24;12.80;99.90
25436;DHT22;13363;52.772;-3.890;2022-09-20T19:31:54;12.80;99.90
25436;DHT22;13363;52.772;-3.890;2022-09-20T19:34:23;12.80;99.90
25436;DHT22;13363;52.772;-3.890;2022-09-20T19:50:31;12.50;99.90
25436;DHT22;13363;52.772;-3.890;2022-09-20T19:52:59;12.40;99.90
25436;DHT22;13363;52.772;-3.890;2022-09-20T19:55:32;12.50;99.90
25436;DHT22;13363;52.772;-3.890;2022-09-20T19:58:03;12.40;99.90
25436;DHT22;13363;52.772;-3.890;2022-09-20T20:00:29;12.40;99.90
25436;DHT22;13363;52.772;-3.890;2022-09-20T20:02:56;12.40;99.90
25436;DHT22;13363;52.772;-3.890;2022-09-20T20:05:23;12.40;99.90
25436;DHT22;13363;52.772;-3.890;2022-09-20T20:08:12;12.30;99.90
25436;DHT22;13363;52.772;-3.890;2022-09-20T20:13:54;12.30;99.90
25436;DHT22;13363;52.772;-3.890;2022-09-20T20:19:44;12.30;99.90
25436;DHT22;13363;52.772;-3.890;2022-09-20T20:24:57;12.20;99.90
25436;DHT22;13363;52.772;-3.890;2022-09-20T20:27:24;12.10;99.90
25436;DHT22;13363;52.772;-3.890;2022-09-20T20:29:53;12.10;99.90
25436;DHT22;13363;52.772;-3.890;2022-09-20T20:32:20;12.10;99.90
25436;DHT22;13363;52.772;-3.890;2022-09-20T20:34:46;12.00;99.90
25436;DHT22;13363;52.772;-3.890;2022-09-20T20:37:12;12.00;99.90
25436;DHT22;13363;52.772;-3.890;2022-09-20T20:39:38;12.00;99.90
25436;DHT22;13363;52.772;-3.890;2022-09-20T20:42:05;11.90;99.90
25436;DHT22;13363;52.772;-3.890;2022-09-20T20:44:32;11.80;99.90
25436;DHT22;13363;52.772;-3.890;2022-09-20T20:47:02;11.90;99.90
25436;DHT22;13363;52.772;-3.890;2022-09-20T20:49:28;11.90;99.90
25436;DHT22;13363;52.772;-3.890;2022-09-20T20:51:54;11.80;99.90
25436;DHT22;13363;52.772;-3.890;2022-09-20T20:54:21;11.80;99.90
25436;DHT22;13363;52.772;-3.890;2022-09-20T20:56:46;11.70;99.90
25436;DHT22;13363;52.772;-3.890;2022-09-20T20:59:12;11.60;99.90
25436;DHT22;13363;52.772;-3.890;2022-09-20T21:01:40;11.60;99.90
25436;DHT22;13363;52.772;-3.890;2022-09-20T21:04:12;11.60;99.90
25436;DHT22;13363;52.772;-3.890;2022-09-20T21:06:40;11.60;99.90
25436;DHT22;13363;52.772;-3.890;2022-09-20T21:09:08;11.50;99.90